createdAt,value
2019-03-11T00:01:39.219Z,65.13
2019-03-11T00:04:11.272Z,65.43
2019-03-11T00:06:43.284Z,65.47
2019-03-11T00:09:14.609Z,65.57
2019-03-11T00:11:47.478Z,64.95
2019-03-11T00:14:18.832Z,64.93
2019-03-11T00:16:50.058Z,64.82
2019-03-11T00:19:21.382Z,64.71
2019-03-11T00:21:52.663Z,64.27
2019-03-11T00:24:24.147Z,64.32
2019-03-11T00:26:55.447Z,64.67
2019-03-11T00:29:26.829Z,64.29
2019-03-11T00:31:58.071Z,64.64
2019-03-11T00:34:29.301Z,64.64
2019-03-11T00:37:00.613Z,64.61
2019-03-11T00:39:31.829Z,64.61
2019-03-11T00:42:03.091Z,64.80
2019-03-11T00:44:34.340Z,64.79
2019-03-11T00:47:05.596Z,64.57
2019-03-11T00:49:36.893Z,64.82
2019-03-11T00:52:08.142Z,64.42
2019-03-11T00:54:39.446Z,64.89
2019-03-11T00:57:11.625Z,65.09
2019-03-11T00:59:42.993Z,65.72
2019-03-11T01:02:14.331Z,65.72
2019-03-11T01:04:45.586Z,64.85
2019-03-11T01:07:16.925Z,65.23
2019-03-11T01:09:48.401Z,64.53
2019-03-11T01:12:19.744Z,64.74
2019-03-11T01:14:51.017Z,64.72
2019-03-11T01:17:22.254Z,64.64
2019-03-11T01:19:53.513Z,64.49
2019-03-11T01:22:24.784Z,64.85
2019-03-11T01:24:56.054Z,64.67
2019-03-11T01:27:27.228Z,65.77
2019-03-11T01:29:58.513Z,65.18
2019-03-11T01:32:29.805Z,65.12
2019-03-11T01:35:01.539Z,65.12
2019-03-11T01:37:32.820Z,65.72
2019-03-11T01:40:04.313Z,65.72
2019-03-11T01:42:35.765Z,64.93
2019-03-11T01:45:08.042Z,65.01
2019-03-11T01:47:39.386Z,64.47
2019-03-11T01:50:10.961Z,64.87
2019-03-11T01:52:42.227Z,64.77
2019-03-11T01:55:13.514Z,64.79
2019-03-11T01:57:44.745Z,64.12
2019-03-11T02:00:16.619Z,64.12
2019-03-11T02:02:47.816Z,64.17
2019-03-11T02:05:19.070Z,63.71
2019-03-11T02:07:50.360Z,63.71
2019-03-11T02:10:21.660Z,63.84
2019-03-11T02:12:53.424Z,63.80
2019-03-11T02:15:24.725Z,64.10
2019-03-11T02:17:55.947Z,63.60
2019-03-11T02:20:27.183Z,63.43
2019-03-11T02:22:58.480Z,63.43
2019-03-11T02:25:29.711Z,63.11
2019-03-11T02:28:01.098Z,63.13
2019-03-11T02:30:33.346Z,62.83
2019-03-11T02:33:04.780Z,63.14
2019-03-11T02:35:36.090Z,62.87
2019-03-11T02:38:07.429Z,62.77
2019-03-11T02:40:38.756Z,62.71
2019-03-11T02:43:10.015Z,62.52
2019-03-11T02:45:41.271Z,62.47
2019-03-11T02:48:12.600Z,62.41
2019-03-11T02:50:43.871Z,62.14
2019-03-11T02:53:15.159Z,62.14
2019-03-11T02:55:50.513Z,62.05
2019-03-11T02:58:19.545Z,61.99
2019-03-11T03:00:52.616Z,61.93
2019-03-11T03:03:41.602Z,61.79
2019-03-11T03:06:15.783Z,61.75
2019-03-11T03:08:47.130Z,61.27
2019-03-11T03:11:18.361Z,61.65
2019-03-11T03:13:49.652Z,61.59
2019-03-11T03:16:20.917Z,61.54
2019-03-11T03:18:52.197Z,61.55
2019-03-11T03:21:23.494Z,61.09
2019-03-11T03:23:54.769Z,61.09
2019-03-11T03:26:26.035Z,61.43
2019-03-11T03:28:57.282Z,61.43
2019-03-11T03:31:28.554Z,61.32
2019-03-11T03:33:59.781Z,61.28
2019-03-11T03:36:31.018Z,61.26
2019-03-11T03:39:02.285Z,61.25
2019-03-11T03:41:35.583Z,61.29
2019-03-11T03:44:06.883Z,61.25
2019-03-11T03:46:38.130Z,61.26
2019-03-11T03:49:09.407Z,61.33
2019-03-11T03:51:40.680Z,61.33
2019-03-11T03:54:11.934Z,61.16
2019-03-11T03:56:43.324Z,61.21
2019-03-11T03:59:14.740Z,61.02
2019-03-11T04:01:45.988Z,61.02
2019-03-11T04:04:17.223Z,61.10
2019-03-11T04:06:48.473Z,61.14
2019-03-11T04:09:19.838Z,61.14
2019-03-11T04:11:51.167Z,61.09
2019-03-11T04:14:22.631Z,60.98
2019-03-11T04:16:53.912Z,60.90
2019-03-11T04:19:28.916Z,60.90
2019-03-11T04:21:58.231Z,60.90
2019-03-11T04:24:29.466Z,60.92
2019-03-11T04:27:03.966Z,60.90
2019-03-11T04:29:35.207Z,60.82
2019-03-11T04:32:06.484Z,60.79
2019-03-11T04:34:37.729Z,60.65
2019-03-11T04:37:08.998Z,60.65
2019-03-11T04:39:40.283Z,60.65
2019-03-11T04:42:11.726Z,60.58
2019-03-11T04:44:43.001Z,60.51
2019-03-11T04:47:14.352Z,60.52
2019-03-11T04:49:45.607Z,60.47
2019-03-11T04:52:16.895Z,60.51
2019-03-11T04:54:48.503Z,60.50
2019-03-11T04:57:19.796Z,60.50
2019-03-11T04:59:51.067Z,60.50
2019-03-11T05:02:22.372Z,60.52
2019-03-11T05:04:53.620Z,60.58
2019-03-11T05:07:25.004Z,60.64
2019-03-11T05:09:56.337Z,60.90
2019-03-11T05:12:27.559Z,60.85
2019-03-11T05:15:00.677Z,61.05
2019-03-11T05:17:32.578Z,61.13
2019-03-11T05:20:04.349Z,61.20
2019-03-11T05:22:35.576Z,61.36
2019-03-11T05:25:07.009Z,61.66
2019-03-11T05:27:38.303Z,61.64
2019-03-11T05:30:12.391Z,61.60
2019-03-11T05:32:43.732Z,61.81
2019-03-11T05:35:15.010Z,61.78
2019-03-11T05:37:46.443Z,61.97
2019-03-11T05:40:17.739Z,62.12
2019-03-11T05:42:48.972Z,62.12
2019-03-11T05:45:20.282Z,62.21
2019-03-11T05:47:51.545Z,62.40
2019-03-11T05:50:22.797Z,62.34
2019-03-11T05:52:54.119Z,62.41
2019-03-11T05:55:25.322Z,62.46
2019-03-11T05:57:56.626Z,62.54
2019-03-11T06:00:29.572Z,62.79
2019-03-11T06:03:00.789Z,62.79
2019-03-11T06:05:32.265Z,62.74
2019-03-11T06:08:03.516Z,62.64
2019-03-11T06:10:35.021Z,62.61
2019-03-11T06:13:06.541Z,62.67
2019-03-11T06:15:37.785Z,62.73
2019-03-11T06:18:09.072Z,62.84
2019-03-11T06:20:53.620Z,63.01
2019-03-11T06:23:24.896Z,63.01
2019-03-11T06:25:56.182Z,62.85
2019-03-11T06:28:27.430Z,62.69
2019-03-11T06:30:58.660Z,62.81
2019-03-11T06:33:30.024Z,62.92
2019-03-11T06:36:01.317Z,62.58
2019-03-11T06:38:32.646Z,62.96
2019-03-11T06:41:03.837Z,62.74
2019-03-11T06:43:35.231Z,62.83
2019-03-11T06:46:06.414Z,62.82
2019-03-11T06:48:37.698Z,62.92
2019-03-11T06:51:08.980Z,62.60
2019-03-11T06:53:40.235Z,62.81
2019-03-11T06:56:11.560Z,63.54
2019-03-11T06:58:42.809Z,63.54
2019-03-11T07:01:14.222Z,63.54
2019-03-11T07:03:45.479Z,63.55
2019-03-11T07:06:16.721Z,63.64
2019-03-11T07:08:48.012Z,63.66
2019-03-11T07:11:19.339Z,63.83
2019-03-11T07:13:50.659Z,64.07
2019-03-11T07:16:22.108Z,63.85
2019-03-11T07:18:53.365Z,63.55
2019-03-11T07:21:24.616Z,63.57
2019-03-11T07:23:56.998Z,63.68
2019-03-11T07:26:28.209Z,63.25
2019-03-11T07:28:59.433Z,63.00
2019-03-11T07:31:30.996Z,63.00
2019-03-11T07:34:02.224Z,62.69
2019-03-11T07:36:33.509Z,62.69
2019-03-11T07:39:05.916Z,62.77
2019-03-11T07:41:37.457Z,62.46
2019-03-11T07:44:08.814Z,62.60
2019-03-11T07:46:40.050Z,62.28
2019-03-11T07:49:11.488Z,62.24
2019-03-11T07:51:42.935Z,62.27
2019-03-11T07:54:14.360Z,62.02
2019-03-11T07:56:45.659Z,62.05
2019-03-11T07:59:16.899Z,61.81
2019-03-11T08:01:48.189Z,61.89
2019-03-11T08:04:19.448Z,61.70
2019-03-11T08:06:51.005Z,61.55
2019-03-11T08:09:22.272Z,61.54
2019-03-11T08:11:53.453Z,61.25
2019-03-11T08:14:24.726Z,61.14
2019-03-11T08:16:56.000Z,61.01
2019-03-11T08:19:27.273Z,60.85
2019-03-11T08:21:58.545Z,60.61
2019-03-11T08:24:30.868Z,60.50
2019-03-11T08:27:02.184Z,60.33
2019-03-11T08:29:33.463Z,60.00
2019-03-11T08:32:04.792Z,59.91
2019-03-11T08:34:36.036Z,59.66
2019-03-11T08:37:07.349Z,59.66
2019-03-11T08:39:38.626Z,59.51
2019-03-11T08:42:09.834Z,59.37
2019-03-11T08:44:41.119Z,59.24
2019-03-11T08:47:12.387Z,58.92
2019-03-11T08:49:43.731Z,59.09
2019-03-11T08:52:15.010Z,58.99
2019-03-11T08:54:46.314Z,58.84
2019-03-11T08:57:17.552Z,58.66
2019-03-11T08:59:48.779Z,58.29
2019-03-11T09:02:21.041Z,58.15
2019-03-11T09:04:52.273Z,58.29
2019-03-11T09:07:23.540Z,58.24
2019-03-11T09:09:54.799Z,58.24
2019-03-11T09:12:26.055Z,58.00
2019-03-11T09:14:57.421Z,57.68
2019-03-11T09:17:28.686Z,57.69
2019-03-11T09:19:59.894Z,57.61
2019-03-11T09:22:31.282Z,57.79
2019-03-11T09:25:02.633Z,57.55
2019-03-11T09:27:35.640Z,57.72
2019-03-11T09:30:07.390Z,57.47
2019-03-11T09:32:38.784Z,57.15
2019-03-11T09:35:10.005Z,57.11
2019-03-11T09:37:41.342Z,57.03
2019-03-11T09:40:13.707Z,56.83
2019-03-11T09:42:45.024Z,56.89
2019-03-11T09:45:16.368Z,56.77
2019-03-11T09:47:47.684Z,56.50
2019-03-11T09:50:19.076Z,56.75
2019-03-11T09:52:50.387Z,56.62
2019-03-11T09:55:21.606Z,56.53
2019-03-11T09:57:53.905Z,56.51
2019-03-11T10:00:25.215Z,56.71
2019-03-11T10:02:56.542Z,56.82
2019-03-11T10:05:28.881Z,56.87
2019-03-11T10:08:00.197Z,56.91
2019-03-11T10:10:31.592Z,57.09
2019-03-11T10:13:02.872Z,57.14
2019-03-11T10:15:34.098Z,57.02
2019-03-11T10:18:05.332Z,56.94
2019-03-11T10:20:36.607Z,56.87
2019-03-11T10:23:07.901Z,57.03
2019-03-11T10:25:39.124Z,57.03
2019-03-11T10:28:11.651Z,56.83
2019-03-11T10:30:42.870Z,56.80
2019-03-11T10:33:14.105Z,56.98
2019-03-11T10:35:45.409Z,56.98
2019-03-11T10:38:16.667Z,57.04
2019-03-11T10:40:47.934Z,57.08
2019-03-11T10:43:19.725Z,57.07
2019-03-11T10:45:51.408Z,56.80
2019-03-11T10:48:22.727Z,56.93
2019-03-11T10:50:54.102Z,57.04
2019-03-11T10:53:26.461Z,57.13
2019-03-11T10:55:59.904Z,57.20
2019-03-11T10:58:30.757Z,57.06
2019-03-11T11:01:03.127Z,56.90
2019-03-11T11:03:34.321Z,57.02
2019-03-11T11:06:05.655Z,57.05
2019-03-11T11:08:36.956Z,57.08
2019-03-11T11:11:08.206Z,56.98
2019-03-11T11:13:39.486Z,56.71
2019-03-11T11:16:10.901Z,56.72
2019-03-11T11:18:42.170Z,56.23
2019-03-11T11:21:13.442Z,56.55
2019-03-11T11:23:44.726Z,56.66
2019-03-11T11:26:16.068Z,56.65
2019-03-11T11:28:47.549Z,56.79
2019-03-11T11:31:18.856Z,56.95
2019-03-11T11:33:50.168Z,57.12
2019-03-11T11:36:21.480Z,57.31
2019-03-11T11:38:52.762Z,57.42
2019-03-11T11:41:24.245Z,57.51
2019-03-11T11:43:55.473Z,57.52
2019-03-11T11:46:26.773Z,57.71
2019-03-11T11:48:58.025Z,57.98
2019-03-11T11:51:29.285Z,58.30
2019-03-11T11:54:01.042Z,58.39
2019-03-11T11:56:32.400Z,58.51
2019-03-11T11:59:03.729Z,58.61
2019-03-11T12:01:35.129Z,58.67
2019-03-11T12:04:06.362Z,58.67
2019-03-11T12:06:37.632Z,58.75
2019-03-11T12:09:08.955Z,58.69
2019-03-11T12:11:41.281Z,58.62
2019-03-11T12:14:13.623Z,58.50
2019-03-11T12:16:44.951Z,58.33
2019-03-11T12:19:16.342Z,58.17
2019-03-11T12:21:47.704Z,58.12
2019-03-11T12:24:19.020Z,58.27
2019-03-11T12:26:50.257Z,58.52
2019-03-11T12:29:21.599Z,58.64
2019-03-11T12:31:52.891Z,58.59
2019-03-11T12:34:24.237Z,58.57
2019-03-11T12:36:55.526Z,58.44
2019-03-11T12:39:26.773Z,58.33
2019-03-11T12:41:58.056Z,58.35
2019-03-11T12:44:29.349Z,58.29
2019-03-11T12:47:00.698Z,58.38
2019-03-11T12:49:32.019Z,58.58
2019-03-11T12:52:03.260Z,58.56
2019-03-11T12:54:34.554Z,58.53
2019-03-11T12:57:05.813Z,58.50
2019-03-11T12:59:40.745Z,58.55
2019-03-11T13:02:10.165Z,58.60
2019-03-11T13:04:41.418Z,58.56
2019-03-11T13:07:12.685Z,58.64
2019-03-11T13:09:43.961Z,58.87
2019-03-11T13:12:15.177Z,59.23
2019-03-11T13:14:46.443Z,59.84
2019-03-11T13:17:17.735Z,59.97
2019-03-11T13:19:49.429Z,59.87
2019-03-11T13:22:21.737Z,59.92
2019-03-11T13:24:52.960Z,59.70
2019-03-11T13:27:24.238Z,59.70
2019-03-11T13:29:55.508Z,60.19
2019-03-11T13:32:27.207Z,60.05
2019-03-11T13:34:58.566Z,59.82
2019-03-11T13:37:29.873Z,59.95
2019-03-11T13:40:01.291Z,59.69
2019-03-11T13:42:32.756Z,60.06
2019-03-11T13:45:04.065Z,60.67
2019-03-11T13:47:35.283Z,59.41
2019-03-11T13:50:07.346Z,58.18
2019-03-11T13:52:38.584Z,57.51
2019-03-11T13:55:10.829Z,57.45
2019-03-11T13:57:42.162Z,58.85
2019-03-11T14:00:13.612Z,58.67
2019-03-11T14:02:44.896Z,57.50
2019-03-11T14:05:16.160Z,57.33
2019-03-11T14:07:47.550Z,56.89
2019-03-11T14:10:18.784Z,56.24
2019-03-11T14:12:51.117Z,55.77
2019-03-11T14:15:22.408Z,55.80
2019-03-11T14:17:53.663Z,55.53
2019-03-11T14:20:25.031Z,55.50
2019-03-11T14:22:56.272Z,55.79
2019-03-11T14:25:27.600Z,55.87
2019-03-11T14:27:59.194Z,55.81
2019-03-11T14:30:30.435Z,55.81
2019-03-11T14:33:01.966Z,55.84
2019-03-11T14:35:33.569Z,55.78
2019-03-11T14:38:04.886Z,55.88
2019-03-11T14:40:36.202Z,56.03
2019-03-11T14:43:07.611Z,56.23
2019-03-11T14:45:38.838Z,56.46
2019-03-11T14:48:18.849Z,56.62
2019-03-11T14:50:50.470Z,56.80
2019-03-11T14:53:22.035Z,56.84
2019-03-11T14:55:55.105Z,56.86
2019-03-11T14:58:29.673Z,56.87
2019-03-11T15:01:00.057Z,56.94
2019-03-11T15:03:31.650Z,56.85
2019-03-11T15:06:03.347Z,56.82
2019-03-11T15:08:35.096Z,56.77
2019-03-11T15:11:06.520Z,56.68
2019-03-11T15:13:38.646Z,56.82
2019-03-11T15:16:10.785Z,56.80
2019-03-11T15:18:42.529Z,56.77
2019-03-11T15:21:14.196Z,56.72
2019-03-11T15:23:45.822Z,56.64
2019-03-11T15:26:24.976Z,56.67
2019-03-11T15:28:50.641Z,57.19
2019-03-11T15:31:22.296Z,57.35
2019-03-11T15:33:53.828Z,57.78
2019-03-11T15:36:33.167Z,58.37
2019-03-11T15:38:58.539Z,58.65
2019-03-11T15:41:30.350Z,59.02
2019-03-11T15:44:02.941Z,59.59
2019-03-11T15:46:39.257Z,60.21
2019-03-11T15:49:08.198Z,60.33
2019-03-11T15:51:39.800Z,60.27
2019-03-11T15:54:11.408Z,60.37
2019-03-11T15:56:42.975Z,60.77
2019-03-11T15:59:14.871Z,61.41
2019-03-11T16:01:46.446Z,60.66
2019-03-11T16:04:18.063Z,61.08
2019-03-11T16:06:49.623Z,61.19
2019-03-11T16:09:21.275Z,60.86
2019-03-11T16:11:55.057Z,61.13
2019-03-11T16:14:26.732Z,60.88
2019-03-11T16:16:58.316Z,60.96
2019-03-11T16:19:30.073Z,61.40
2019-03-11T16:22:01.529Z,60.96
2019-03-11T16:24:33.280Z,60.83
2019-03-11T16:27:14.532Z,60.61
2019-03-11T16:29:47.283Z,60.54
2019-03-11T16:32:19.031Z,60.87
2019-03-11T16:34:50.594Z,60.84
2019-03-11T16:37:22.352Z,60.72
2019-03-11T16:39:54.187Z,60.55
2019-03-11T16:42:25.681Z,60.80
2019-03-11T16:44:59.771Z,60.81
2019-03-11T16:47:31.530Z,60.85
2019-03-11T16:50:03.000Z,60.95
2019-03-11T16:52:34.397Z,61.24
2019-03-11T16:55:05.989Z,61.24
2019-03-11T16:57:41.808Z,61.16
2019-03-11T17:00:19.806Z,61.48
2019-03-11T17:02:51.392Z,61.48
2019-03-11T17:05:23.105Z,61.34
2019-03-11T17:07:58.158Z,61.77
2019-03-11T17:10:30.189Z,61.86
2019-03-11T17:13:02.534Z,61.61
2019-03-11T17:15:35.234Z,61.40
2019-03-11T17:18:06.643Z,61.64
2019-03-11T17:20:38.944Z,61.49
2019-03-11T17:23:10.509Z,61.48
2019-03-11T17:25:41.995Z,61.22
2019-03-11T17:28:14.215Z,61.82
2019-03-11T17:30:45.513Z,62.04
2019-03-11T17:33:16.834Z,61.72
2019-03-11T17:35:48.142Z,61.54
2019-03-11T17:38:19.555Z,61.85
2019-03-11T17:40:54.335Z,61.47
2019-03-11T17:43:25.719Z,61.38
2019-03-11T17:45:56.966Z,61.38
2019-03-11T17:48:28.302Z,61.29
2019-03-11T17:50:59.593Z,61.24
2019-03-11T17:53:31.967Z,61.54
2019-03-11T17:56:03.584Z,61.67
2019-03-11T17:58:36.001Z,61.69
2019-03-11T18:01:09.165Z,61.43
2019-03-11T18:03:40.535Z,61.21
2019-03-11T18:06:12.260Z,61.40
2019-03-11T18:08:43.799Z,61.21
2019-03-11T18:11:15.262Z,61.20
2019-03-11T18:13:46.633Z,61.18
2019-03-11T18:16:18.891Z,61.15
2019-03-11T18:18:50.190Z,61.12
2019-03-11T18:21:22.420Z,61.20
2019-03-11T18:23:53.930Z,61.04
2019-03-11T18:26:25.235Z,61.09
2019-03-11T18:28:56.561Z,60.99
2019-03-11T18:31:27.816Z,60.99
2019-03-11T18:33:59.534Z,60.97
2019-03-11T18:36:31.906Z,60.97
2019-03-11T18:39:04.843Z,60.87
2019-03-11T18:41:40.360Z,60.81
2019-03-11T18:44:13.674Z,60.80
2019-03-11T18:46:45.044Z,60.88
2019-03-11T18:49:16.352Z,60.83
2019-03-11T18:51:47.626Z,60.80
2019-03-11T18:54:19.095Z,60.82
2019-03-11T18:56:50.362Z,60.81
2019-03-11T18:59:21.678Z,60.88
2019-03-11T19:01:52.878Z,60.89
2019-03-11T19:04:24.285Z,60.91
2019-03-11T19:06:55.531Z,60.92
2019-03-11T19:09:26.885Z,61.00
2019-03-11T19:11:58.197Z,61.02
2019-03-11T19:14:29.483Z,61.12
2019-03-11T19:17:00.811Z,61.24
2019-03-11T19:19:32.189Z,61.22
2019-03-11T19:22:03.417Z,61.19
2019-03-11T19:24:34.773Z,61.25
2019-03-11T19:27:06.137Z,61.25
2019-03-11T19:29:37.406Z,61.22
2019-03-11T19:32:08.808Z,61.22
2019-03-11T19:34:40.139Z,61.20
2019-03-11T19:37:11.369Z,61.25
2019-03-11T19:39:42.591Z,61.35
2019-03-11T19:42:14.030Z,61.23
2019-03-11T19:44:47.468Z,61.21
2019-03-11T19:47:18.423Z,61.30
2019-03-11T19:49:49.641Z,61.23
2019-03-11T19:52:20.919Z,61.34
2019-03-11T19:54:53.348Z,61.37
2019-03-11T19:57:24.596Z,61.38
2019-03-11T19:59:56.045Z,61.56
2019-03-11T20:02:27.322Z,61.53
2019-03-11T20:05:00.014Z,61.55
2019-03-11T20:07:31.452Z,61.77
2019-03-11T20:10:02.668Z,61.72
2019-03-11T20:12:34.208Z,61.76
2019-03-11T20:15:06.396Z,61.80
2019-03-11T20:17:39.865Z,61.80
2019-03-11T20:20:11.966Z,61.78
2019-03-11T20:22:43.188Z,61.84
2019-03-11T20:25:18.007Z,61.88
2019-03-11T20:27:49.666Z,61.86
2019-03-11T20:30:22.270Z,61.88
2019-03-11T20:32:53.662Z,61.88
2019-03-11T20:35:25.074Z,61.85
2019-03-11T20:37:56.331Z,61.86
2019-03-11T20:40:27.694Z,61.98
2019-03-11T20:42:59.115Z,61.87
2019-03-11T20:45:30.632Z,62.15
2019-03-11T20:48:01.882Z,61.96
2019-03-11T20:50:42.077Z,62.02
2019-03-11T20:53:06.795Z,62.15
2019-03-11T20:55:38.407Z,62.04
2019-03-11T20:58:10.156Z,62.00
2019-03-11T21:00:42.001Z,62.39
2019-03-11T21:03:13.421Z,62.44
2019-03-11T21:05:48.682Z,62.40
2019-03-11T21:08:22.771Z,62.54
2019-03-11T21:10:54.179Z,62.38
2019-03-11T21:13:25.567Z,62.51
2019-03-11T21:16:04.789Z,62.63
2019-03-11T21:18:37.247Z,62.52
2019-03-11T21:21:08.663Z,62.83
2019-03-11T21:23:39.954Z,62.66
2019-03-11T21:26:11.432Z,62.61
2019-03-11T21:28:42.748Z,62.72
2019-03-11T21:31:14.020Z,62.71
2019-03-11T21:33:59.143Z,62.79
2019-03-11T21:36:37.293Z,62.77
2019-03-11T21:39:08.781Z,62.70
2019-03-11T21:41:41.875Z,62.80
2019-03-11T21:44:13.253Z,62.80
2019-03-11T21:46:44.643Z,62.92
2019-03-11T21:49:15.902Z,62.75
2019-03-11T21:51:47.998Z,62.89
2019-03-11T21:54:24.618Z,62.89
2019-03-11T21:57:02.637Z,63.11
2019-03-11T21:59:43.116Z,62.91
2019-03-11T22:02:18.628Z,62.85
2019-03-11T22:04:50.578Z,62.80
2019-03-11T22:07:21.899Z,62.64
2019-03-11T22:09:53.237Z,62.66
2019-03-11T22:12:24.537Z,62.66
2019-03-11T22:14:55.866Z,62.52
2019-03-11T22:17:27.101Z,62.55
2019-03-11T22:19:58.363Z,62.43
2019-03-11T22:22:29.645Z,62.44
2019-03-11T22:25:00.922Z,62.52
2019-03-11T22:27:32.381Z,62.71
2019-03-11T22:30:03.615Z,62.59
2019-03-11T22:32:35.033Z,62.81
2019-03-11T22:35:12.462Z,62.85
2019-03-11T22:37:39.281Z,62.75
2019-03-11T22:40:11.057Z,62.89
2019-03-11T22:42:42.430Z,62.76
2019-03-11T22:45:16.671Z,62.85
2019-03-11T22:47:47.017Z,63.16
2019-03-11T22:50:18.356Z,63.06
2019-03-11T22:52:49.693Z,63.02
2019-03-11T22:55:21.145Z,62.96
2019-03-11T22:57:52.437Z,62.91
2019-03-11T23:00:32.369Z,63.01
2019-03-11T23:03:06.906Z,62.93
2019-03-11T23:05:57.132Z,63.04
2019-03-11T23:08:16.200Z,62.91
2019-03-11T23:10:47.578Z,62.87
2019-03-11T23:13:18.944Z,62.68
2019-03-11T23:15:50.351Z,62.86
2019-03-11T23:18:21.589Z,62.95
2019-03-11T23:20:52.960Z,62.87
2019-03-11T23:23:24.276Z,62.91
2019-03-11T23:25:55.561Z,62.86
2019-03-11T23:28:26.951Z,62.87
2019-03-11T23:30:58.420Z,62.90
2019-03-11T23:33:29.700Z,62.81
2019-03-11T23:36:00.899Z,62.97
2019-03-11T23:38:32.186Z,62.87
2019-03-11T23:41:03.454Z,62.94
2019-03-11T23:43:34.780Z,62.88
2019-03-11T23:46:06.043Z,62.85
2019-03-11T23:48:37.347Z,62.67
2019-03-11T23:51:08.876Z,62.67
2019-03-11T23:53:40.218Z,62.63
2019-03-11T23:56:11.601Z,62.69
2019-03-11T23:58:42.871Z,62.71
